sensor_id;sensor_type;location;lat;lon;timestamp;temperature;humidity
39899;DHT22;25571;47.876;10.642;2023-04-09T00:00:36;6.50;99.90
39899;DHT22;25571;47.876;10.642;2023-04-09T00:03:02;6.40;99.90
39899;DHT22;25571;47.876;10.642;2023-04-09T00:05:27;6.30;99.90
39899;DHT22;25571;47.876;10.642;2023-04-09T00:07:53;6.30;99.90
39899;DHT22;25571;47.876;10.642;2023-04-09T00:10:19;6.30;99.90
39899;DHT22;25571;47.876;10.642;2023-04-09T00:12:44;6.30;99.90
39899;DHT22;25571;47.876;10.642;2023-04-09T00:15:10;6.30;99.90
39899;DHT22;25571;47.876;10.642;2023-04-09T00:17:35;6.30;99.90
39899;DHT22;25571;47.876;10.642;2023-04-09T00:20:01;6.50;99.90
39899;DHT22;25571;47.876;10.642;2023-04-09T00:22:28;6.40;99.90
39899;DHT22;25571;47.876;10.642;2023-04-09T00:24:54;6.40;99.90
39899;DHT22;25571;47.876;10.642;2023-04-09T00:27:20;6.40;99.90
39899;DHT22;25571;47.876;10.642;2023-04-09T00:29:45;6.40;99.90
39899;DHT22;25571;47.876;10.642;2023-04-09T00:32:12;6.40;99.90
39899;DHT22;25571;47.876;10.642;2023-04-09T00:34:38;6.30;99.90
39899;DHT22;25571;47.876;10.642;2023-04-09T00:37:04;6.30;99.90
39899;DHT22;25571;47.876;10.642;2023-04-09T00:39:30;6.30;99.90
39899;DHT22;25571;47.876;10.642;2023-04-09T00:41:56;6.30;99.90
39899;DHT22;25571;47.876;10.642;2023-04-09T00:44:23;6.50;99.90
39899;DHT22;25571;47.876;10.642;2023-04-09T00:46:48;6.40;99.90
39899;DHT22;25571;47.876;10.642;2023-04-09T00:49:14;6.50;99.90
39899;DHT22;25571;47.876;10.642;2023-04-09T00:51:40;6.30;99.90
39899;DHT22;25571;47.876;10.642;2023-04-09T00:54:06;6.30;99.90
39899;DHT22;25571;47.876;10.642;2023-04-09T00:56:32;6.40;99.90
39899;DHT22;25571;47.876;10.642;2023-04-09T00:58:58;6.40;99.90
39899;DHT22;25571;47.876;10.642;2023-04-09T01:01:25;6.30;99.90
39899;DHT22;25571;47.876;10.642;2023-04-09T01:03:50;6.30;99.90
39899;DHT22;25571;47.876;10.642;2023-04-09T01:06:37;6.30;99.90
39899;DHT22;25571;47.876;10.642;2023-04-09T01:16:41;6.30;99.90
39899;DHT22;25571;47.876;10.642;2023-04-09T01:19:15;6.20;99.90
39899;DHT22;25571;47.876;10.642;2023-04-09T01:21:45;6.10;99.90
39899;DHT22;25571;47.876;10.642;2023-04-09T01:25:03;6.10;99.90
39899;DHT22;25571;47.876;10.642;2023-04-09T01:27:12;6.10;99.90
39899;DHT22;25571;47.876;10.642;2023-04-09T01:29:45;6.10;99.90
39899;DHT22;25571;47.876;10.642;2023-04-09T01:32:13;6.20;99.90
39899;DHT22;25571;47.876;10.642;2023-04-09T01:34:40;6.30;99.90
39899;DHT22;25571;47.876;10.642;2023-04-09T01:37:07;6.30;99.90
39899;DHT22;25571;47.876;10.642;2023-04-09T01:39:33;6.20;99.90
39899;DHT22;25571;47.876;10.642;2023-04-09T01:41:59;6.30;99.90
39899;DHT22;25571;47.876;10.642;2023-04-09T01:44:26;6.30;99.90
39899;DHT22;25571;47.876;10.642;2023-04-09T01:46:53;6.30;99.90
39899;DHT22;25571;47.876;10.642;2023-04-09T01:49:19;6.40;99.90
39899;DHT22;25571;47.876;10.642;2023-04-09T01:51:46;6.40;99.90
39899;DHT22;25571;47.876;10.642;2023-04-09T01:54:12;6.40;99.90
39899;DHT22;25571;47.876;10.642;2023-04-09T01:56:42;6.30;99.90
39899;DHT22;25571;47.876;10.642;2023-04-09T01:59:08;6.30;99.90
39899;DHT22;25571;47.876;10.642;2023-04-09T02:01:43;6.30;99.90
39899;DHT22;25571;47.876;10.642;2023-04-09T02:04:15;6.20;99.90
39899;DHT22;25571;47.876;10.642;2023-04-09T02:09:20;6.30;99.90
39899;DHT22;25571;47.876;10.642;2023-04-09T02:11:47;6.30;99.90
39899;DHT22;25571;47.876;10.642;2023-04-09T02:14:15;6.40;99.90
39899;DHT22;25571;47.876;10.642;2023-04-09T02:16:41;6.20;99.90
39899;DHT22;25571;47.876;10.642;2023-04-09T02:19:07;6.20;99.90
39899;DHT22;25571;47.876;10.642;2023-04-09T02:21:33;6.30;99.90
39899;DHT22;25571;47.876;10.642;2023-04-09T02:23:58;6.30;99.90
39899;DHT22;25571;47.876;10.642;2023-04-09T02:26:24;6.40;99.90
39899;DHT22;25571;47.876;10.642;2023-04-09T02:28:50;6.30;99.90
39899;DHT22;25571;47.876;10.642;2023-04-09T02:31:16;6.30;99.90
39899;DHT22;25571;47.876;10.642;2023-04-09T02:33:41;6.20;99.90
39899;DHT22;25571;47.876;10.642;2023-04-09T02:36:10;6.20;99.90
39899;DHT22;25571;47.876;10.642;2023-04-09T02:38:39;6.20;99.90
39899;DHT22;25571;47.876;10.642;2023-04-09T02:41:04;6.20;99.90
39899;DHT22;25571;47.876;10.642;2023-04-09T02:43:30;6.10;99.90
39899;DHT22;25571;47.876;10.642;2023-04-09T02:45:55;6.10;99.90
39899;DHT22;25571;47.876;10.642;2023-04-09T02:48:21;6.00;99.90
39899;DHT22;25571;47.876;10.642;2023-04-09T02:50:47;5.90;99.90
39899;DHT22;25571;47.876;10.642;2023-04-09T02:53:12;5.80;99.90
39899;DHT22;25571;47.876;10.642;2023-04-09T02:55:38;5.80;99.90
39899;DHT22;25571;47.876;10.642;2023-04-09T02:58:03;5.70;99.90
39899;DHT22;25571;47.876;10.642;2023-04-09T03:00:29;5.70;99.90
39899;DHT22;25571;47.876;10.642;2023-04-09T03:02:54;5.80;99.90
39899;DHT22;25571;47.876;10.642;2023-04-09T03:05:20;5.90;99.90
39899;DHT22;25571;47.876;10.642;2023-04-09T03:07:46;5.90;99.90
39899;DHT22;25571;47.876;10.642;2023-04-09T03:10:11;6.00;99.90
39899;DHT22;25571;47.876;10.642;2023-04-09T03:12:37;5.80;99.90
39899;DHT22;25571;47.876;10.642;2023-04-09T03:15:03;5.70;99.90
39899;DHT22;25571;47.876;10.642;2023-04-09T03:17:29;5.80;99.90
39899;DHT22;25571;47.876;10.642;2023-04-09T03:19:56;5.80;99.90
39899;DHT22;25571;47.876;10.642;2023-04-09T03:22:22;5.80;99.90
39899;DHT22;25571;47.876;10.642;2023-04-09T03:24:47;5.80;99.90
39899;DHT22;25571;47.876;10.642;2023-04-09T03:27:13;5.80;99.90
39899;DHT22;25571;47.876;10.642;2023-04-09T03:29:39;5.80;99.90
39899;DHT22;25571;47.876;10.642;2023-04-09T03:32:04;5.90;99.90
39899;DHT22;25571;47.876;10.642;2023-04-09T03:34:30;6.00;99.90
39899;DHT22;25571;47.876;10.642;2023-04-09T03:36:56;5.90;99.90
39899;DHT22;25571;47.876;10.642;2023-04-09T03:39:21;5.80;99.90
39899;DHT22;25571;47.876;10.642;2023-04-09T03:41:47;5.80;99.90
39899;DHT22;25571;47.876;10.642;2023-04-09T03:44:12;5.70;99.90
39899;DHT22;25571;47.876;10.642;2023-04-09T03:46:38;5.70;99.90
39899;DHT22;25571;47.876;10.642;2023-04-09T03:49:04;5.70;99.90
39899;DHT22;25571;47.876;10.642;2023-04-09T03:51:29;5.70;99.90
39899;DHT22;25571;47.876;10.642;2023-04-09T03:53:56;5.70;99.90
39899;DHT22;25571;47.876;10.642;2023-04-09T03:56:21;5.70;99.90
39899;DHT22;25571;47.876;10.642;2023-04-09T03:58:47;5.90;99.90
39899;DHT22;25571;47.876;10.642;2023-04-09T04:01:14;5.60;99.90
39899;DHT22;25571;47.876;10.642;2023-04-09T04:03:39;5.60;99.90
39899;DHT22;25571;47.876;10.642;2023-04-09T04:06:05;5.50;99.90
39899;DHT22;25571;47.876;10.642;2023-04-09T04:08:30;5.70;99.90
39899;DHT22;25571;47.876;10.642;2023-04-09T04:11:02;5.50;99.90
39899;DHT22;25571;47.876;10.642;2023-04-09T04:13:28;5.60;99.90
39899;DHT22;25571;47.876;10.642;2023-04-09T04:15:53;5.80;99.90
39899;DHT22;25571;47.876;10.642;2023-04-09T04:18:19;5.60;99.90
39899;DHT22;25571;47.876;10.642;2023-04-09T04:20:44;5.50;99.90
39899;DHT22;25571;47.876;10.642;2023-04-09T04:23:10;5.40;99.90
39899;DHT22;25571;47.876;10.642;2023-04-09T04:25:36;5.60;99.90
39899;DHT22;25571;47.876;10.642;2023-04-09T04:28:01;5.50;99.90
39899;DHT22;25571;47.876;10.642;2023-04-09T04:30:27;5.60;99.90
39899;DHT22;25571;47.876;10.642;2023-04-09T04:32:52;5.70;99.90
39899;DHT22;25571;47.876;10.642;2023-04-09T04:35:18;5.60;99.90
39899;DHT22;25571;47.876;10.642;2023-04-09T04:37:49;5.60;99.90
39899;DHT22;25571;47.876;10.642;2023-04-09T04:40:15;5.50;99.90
39899;DHT22;25571;47.876;10.642;2023-04-09T04:42:41;5.50;99.90
39899;DHT22;25571;47.876;10.642;2023-04-09T04:45:07;5.40;99.90
39899;DHT22;25571;47.876;10.642;2023-04-09T04:47:33;5.30;99.90
39899;DHT22;25571;47.876;10.642;2023-04-09T04:49:58;5.40;99.90
39899;DHT22;25571;47.876;10.642;2023-04-09T04:52:24;5.50;99.90
39899;DHT22;25571;47.876;10.642;2023-04-09T04:54:50;5.50;99.90
39899;DHT22;25571;47.876;10.642;2023-04-09T04:57:15;5.50;99.90
39899;DHT22;25571;47.876;10.642;2023-04-09T04:59:41;5.70;99.90
39899;DHT22;25571;47.876;10.642;2023-04-09T05:02:07;5.60;99.90
39899;DHT22;25571;47.876;10.642;2023-04-09T05:04:32;5.60;99.90
39899;DHT22;25571;47.876;10.642;2023-04-09T05:06:58;5.60;99.90
39899;DHT22;25571;47.876;10.642;2023-04-09T05:09:24;5.60;99.90
39899;DHT22;25571;47.876;10.642;2023-04-09T05:11:50;5.50;99.90
39899;DHT22;25571;47.876;10.642;2023-04-09T05:14:15;5.60;99.90
39899;DHT22;25571;47.876;10.642;2023-04-09T05:16:41;5.60;99.90
39899;DHT22;25571;47.876;10.642;2023-04-09T05:19:07;5.60;99.90
39899;DHT22;25571;47.876;10.642;2023-04-09T05:21:32;5.60;99.90
39899;DHT22;25571;47.876;10.642;2023-04-09T05:23:58;5.60;99.90
39899;DHT22;25571;47.876;10.642;2023-04-09T05:26:24;5.60;99.90
39899;DHT22;25571;47.876;10.642;2023-04-09T05:28:49;5.60;99.90
39899;DHT22;25571;47.876;10.642;2023-04-09T05:31:16;5.70;99.90
39899;DHT22;25571;47.876;10.642;2023-04-09T05:33:42;5.70;99.90
39899;DHT22;25571;47.876;10.642;2023-04-09T05:36:07;5.70;99.90
39899;DHT22;25571;47.876;10.642;2023-04-09T05:38:33;5.70;99.90
39899;DHT22;25571;47.876;10.642;2023-04-09T05:40:59;5.80;99.90
39899;DHT22;25571;47.876;10.642;2023-04-09T05:43:25;5.80;99.90
39899;DHT22;25571;47.876;10.642;2023-04-09T05:45:50;5.90;99.90
39899;DHT22;25571;47.876;10.642;2023-04-09T05:48:16;5.80;99.90
39899;DHT22;25571;47.876;10.642;2023-04-09T05:50:48;6.00;99.90
39899;DHT22;25571;47.876;10.642;2023-04-09T05:53:15;6.00;99.90
39899;DHT22;25571;47.876;10.642;2023-04-09T05:55:40;6.00;99.90
39899;DHT22;25571;47.876;10.642;2023-04-09T05:58:06;6.10;99.90
39899;DHT22;25571;47.876;10.642;2023-04-09T06:00:32;6.20;99.90
39899;DHT22;25571;47.876;10.642;2023-04-09T06:02:57;6.20;99.90
39899;DHT22;25571;47.876;10.642;2023-04-09T06:05:23;6.20;99.90
39899;DHT22;25571;47.876;10.642;2023-04-09T06:07:48;6.20;99.90
39899;DHT22;25571;47.876;10.642;2023-04-09T06:10:14;6.20;99.90
39899;DHT22;25571;47.876;10.642;2023-04-09T06:12:40;6.20;99.90
39899;DHT22;25571;47.876;10.642;2023-04-09T06:15:06;6.30;99.90
39899;DHT22;25571;47.876;10.642;2023-04-09T06:17:31;6.40;99.90
39899;DHT22;25571;47.876;10.642;2023-04-09T06:19:57;6.40;99.90
39899;DHT22;25571;47.876;10.642;2023-04-09T06:22:23;6.40;99.90
39899;DHT22;25571;47.876;10.642;2023-04-09T06:24:48;6.40;99.90
39899;DHT22;25571;47.876;10.642;2023-04-09T06:27:14;6.60;99.90
39899;DHT22;25571;47.876;10.642;2023-04-09T06:29:40;6.50;99.90
39899;DHT22;25571;47.876;10.642;2023-04-09T06:32:05;6.50;99.90
39899;DHT22;25571;47.876;10.642;2023-04-09T06:34:31;6.60;99.90
39899;DHT22;25571;47.876;10.642;2023-04-09T06:36:56;6.60;99.90
39899;DHT22;25571;47.876;10.642;2023-04-09T06:39:22;6.90;99.90
39899;DHT22;25571;47.876;10.642;2023-04-09T06:41:48;6.80;99.90
39899;DHT22;25571;47.876;10.642;2023-04-09T06:44:13;7.90;99.90
39899;DHT22;25571;47.876;10.642;2023-04-09T06:46:39;9.00;99.90
39899;DHT22;25571;47.876;10.642;2023-04-09T06:49:04;9.80;99.90
39899;DHT22;25571;47.876;10.642;2023-04-09T06:51:30;10.40;99.90
39899;DHT22;25571;47.876;10.642;2023-04-09T06:53:56;11.00;99.90
39899;DHT22;25571;47.876;10.642;2023-04-09T06:56:22;11.20;99.90
39899;DHT22;25571;47.876;10.642;2023-04-09T06:58:47;11.50;99.90
39899;DHT22;25571;47.876;10.642;2023-04-09T07:01:13;10.60;99.90
39899;DHT22;25571;47.876;10.642;2023-04-09T07:03:39;9.90;99.90
39899;DHT22;25571;47.876;10.642;2023-04-09T07:06:05;9.30;99.90
39899;DHT22;25571;47.876;10.642;2023-04-09T07:08:30;8.80;99.90
39899;DHT22;25571;47.876;10.642;2023-04-09T07:10:56;8.50;99.90
39899;DHT22;25571;47.876;10.642;2023-04-09T07:13:21;8.40;99.90
39899;DHT22;25571;47.876;10.642;2023-04-09T07:15:47;8.20;99.90
39899;DHT22;25571;47.876;10.642;2023-04-09T07:18:12;8.30;99.90
39899;DHT22;25571;47.876;10.642;2023-04-09T07:20:38;8.60;99.90
39899;DHT22;25571;47.876;10.642;2023-04-09T07:23:04;9.20;99.90
39899;DHT22;25571;47.876;10.642;2023-04-09T07:25:29;10.10;99.90
39899;DHT22;25571;47.876;10.642;2023-04-09T07:27:55;10.00;99.90
39899;DHT22;25571;47.876;10.642;2023-04-09T07:30:21;12.10;99.90
39899;DHT22;25571;47.876;10.642;2023-04-09T07:32:47;15.60;96.50
39899;DHT22;25571;47.876;10.642;2023-04-09T07:35:13;16.00;91.00
39899;DHT22;25571;47.876;10.642;2023-04-09T07:37:38;19.90;70.60
39899;DHT22;25571;47.876;10.642;2023-04-09T07:40:04;22.30;57.70
39899;DHT22;25571;47.876;10.642;2023-04-09T07:42:31;25.50;49.70
39899;DHT22;25571;47.876;10.642;2023-04-09T07:44:57;24.80;47.60
39899;DHT22;25571;47.876;10.642;2023-04-09T07:47:22;24.70;45.20
39899;DHT22;25571;47.876;10.642;2023-04-09T07:49:49;24.90;44.60
39899;DHT22;25571;47.876;10.642;2023-04-09T07:52:14;26.80;40.70
39899;DHT22;25571;47.876;10.642;2023-04-09T07:54:40;25.80;36.80
39899;DHT22;25571;47.876;10.642;2023-04-09T07:57:06;23.10;43.50
39899;DHT22;25571;47.876;10.642;2023-04-09T07:59:33;21.40;47.60
39899;DHT22;25571;47.876;10.642;2023-04-09T08:01:59;18.10;52.40
39899;DHT22;25571;47.876;10.642;2023-04-09T08:04:25;18.40;56.30
39899;DHT22;25571;47.876;10.642;2023-04-09T08:06:51;18.50;53.40
39899;DHT22;25571;47.876;10.642;2023-04-09T08:09:21;16.10;55.90
39899;DHT22;25571;47.876;10.642;2023-04-09T08:11:47;21.50;49.10
39899;DHT22;25571;47.876;10.642;2023-04-09T08:14:14;24.90;45.80
39899;DHT22;25571;47.876;10.642;2023-04-09T08:16:42;26.60;40.40
39899;DHT22;25571;47.876;10.642;2023-04-09T08:19:08;29.10;37.80
39899;DHT22;25571;47.876;10.642;2023-04-09T08:21:38;32.50;32.40
39899;DHT22;25571;47.876;10.642;2023-04-09T08:24:07;35.30;29.20
39899;DHT22;25571;47.876;10.642;2023-04-09T08:26:33;37.70;27.60
39899;DHT22;25571;47.876;10.642;2023-04-09T08:28:59;37.70;26.00
39899;DHT22;25571;47.876;10.642;2023-04-09T08:31:25;40.20;24.90
39899;DHT22;25571;47.876;10.642;2023-04-09T08:33:51;42.40;23.60
39899;DHT22;25571;47.876;10.642;2023-04-09T08:36:18;41.20;21.60
39899;DHT22;25571;47.876;10.642;2023-04-09T08:38:44;42.70;21.50
39899;DHT22;25571;47.876;10.642;2023-04-09T08:41:22;43.40;21.30
39899;DHT22;25571;47.876;10.642;2023-04-09T08:43:49;41.80;21.30
39899;DHT22;25571;47.876;10.642;2023-04-09T08:46:17;40.40;22.20
39899;DHT22;25571;47.876;10.642;2023-04-09T08:48:44;37.70;25.50
39899;DHT22;25571;47.876;10.642;2023-04-09T08:51:22;37.30;22.70
39899;DHT22;25571;47.876;10.642;2023-04-09T08:53:58;38.90;22.50
39899;DHT22;25571;47.876;10.642;2023-04-09T08:56:24;40.30;22.70
39899;DHT22;25571;47.876;10.642;2023-04-09T08:58:54;42.40;21.60
39899;DHT22;25571;47.876;10.642;2023-04-09T09:01:27;44.10;19.70
39899;DHT22;25571;47.876;10.642;2023-04-09T09:04:00;43.60;20.60
39899;DHT22;25571;47.876;10.642;2023-04-09T09:06:27;42.40;20.30
39899;DHT22;25571;47.876;10.642;2023-04-09T09:09:02;43.20;18.80
39899;DHT22;25571;47.876;10.642;2023-04-09T09:11:29;41.40;20.30
39899;DHT22;25571;47.876;10.642;2023-04-09T09:14:14;41.50;20.70
39899;DHT22;25571;47.876;10.642;2023-04-09T09:16:42;43.40;19.70
39899;DHT22;25571;47.876;10.642;2023-04-09T09:22:04;41.70;20.20
39899;DHT22;25571;47.876;10.642;2023-04-09T09:24:31;39.90;20.80
39899;DHT22;25571;47.876;10.642;2023-04-09T09:26:57;39.10;20.40
39899;DHT22;25571;47.876;10.642;2023-04-09T09:29:23;39.10;21.30
39899;DHT22;25571;47.876;10.642;2023-04-09T09:31:51;38.50;20.90
39899;DHT22;25571;47.876;10.642;2023-04-09T09:34:18;34.10;22.60
39899;DHT22;25571;47.876;10.642;2023-04-09T09:36:45;29.10;26.10
39899;DHT22;25571;47.876;10.642;2023-04-09T09:39:12;25.50;28.00
39899;DHT22;25571;47.876;10.642;2023-04-09T09:41:39;23.60;30.60
39899;DHT22;25571;47.876;10.642;2023-04-09T09:44:09;22.10;33.90
39899;DHT22;25571;47.876;10.642;2023-04-09T09:46:37;20.20;39.70
39899;DHT22;25571;47.876;10.642;2023-04-09T09:49:07;18.20;41.10
39899;DHT22;25571;47.876;10.642;2023-04-09T09:51:35;18.10;44.90
39899;DHT22;25571;47.876;10.642;2023-04-09T09:54:01;18.10;44.70
39899;DHT22;25571;47.876;10.642;2023-04-09T09:56:34;17.00;43.80
39899;DHT22;25571;47.876;10.642;2023-04-09T09:59:12;15.80;45.20
39899;DHT22;25571;47.876;10.642;2023-04-09T10:01:41;14.90;48.40
39899;DHT22;25571;47.876;10.642;2023-04-09T10:04:08;14.80;48.50
39899;DHT22;25571;47.876;10.642;2023-04-09T10:06:42;14.20;49.30
39899;DHT22;25571;47.876;10.642;2023-04-09T10:09:08;14.30;49.70
39899;DHT22;25571;47.876;10.642;2023-04-09T10:11:36;13.40;50.20
39899;DHT22;25571;47.876;10.642;2023-04-09T10:14:03;13.00;52.20
39899;DHT22;25571;47.876;10.642;2023-04-09T10:16:30;13.10;52.40
39899;DHT22;25571;47.876;10.642;2023-04-09T10:18:57;13.10;52.90
39899;DHT22;25571;47.876;10.642;2023-04-09T10:21:44;13.10;53.00
39899;DHT22;25571;47.876;10.642;2023-04-09T10:24:11;12.00;53.50
39899;DHT22;25571;47.876;10.642;2023-04-09T10:26:42;11.90;55.80
39899;DHT22;25571;47.876;10.642;2023-04-09T10:29:11;11.80;55.70
39899;DHT22;25571;47.876;10.642;2023-04-09T10:32:05;12.10;55.90
39899;DHT22;25571;47.876;10.642;2023-04-09T10:34:39;12.00;55.10
39899;DHT22;25571;47.876;10.642;2023-04-09T10:37:13;12.10;55.20
39899;DHT22;25571;47.876;10.642;2023-04-09T10:39:43;12.20;55.20
39899;DHT22;25571;47.876;10.642;2023-04-09T10:42:29;12.70;57.30
39899;DHT22;25571;47.876;10.642;2023-04-09T10:45:08;12.50;57.10
39899;DHT22;25571;47.876;10.642;2023-04-09T10:47:36;12.40;55.50
39899;DHT22;25571;47.876;10.642;2023-04-09T10:50:24;12.80;57.30
39899;DHT22;25571;47.876;10.642;2023-04-09T10:52:53;12.80;55.90
39899;DHT22;25571;47.876;10.642;2023-04-09T10:55:40;12.50;54.80
39899;DHT22;25571;47.876;10.642;2023-04-09T10:58:10;13.00;56.00
39899;DHT22;25571;47.876;10.642;2023-04-09T11:00:38;12.60;56.20
39899;DHT22;25571;47.876;10.642;2023-04-09T11:03:28;12.70;56.80
39899;DHT22;25571;47.876;10.642;2023-04-09T11:06:08;11.90;55.30
39899;DHT22;25571;47.876;10.642;2023-04-09T11:08:35;11.90;56.90
39899;DHT22;25571;47.876;10.642;2023-04-09T11:11:02;12.10;55.30
39899;DHT22;25571;47.876;10.642;2023-04-09T11:13:29;12.00;54.30
39899;DHT22;25571;47.876;10.642;2023-04-09T11:15:57;11.80;53.50
39899;DHT22;25571;47.876;10.642;2023-04-09T11:18:28;11.70;56.30
39899;DHT22;25571;47.876;10.642;2023-04-09T11:20:59;11.80;55.00
39899;DHT22;25571;47.876;10.642;2023-04-09T11:23:25;11.80;54.30
39899;DHT22;25571;47.876;10.642;2023-04-09T11:25:52;11.90;55.60
39899;DHT22;25571;47.876;10.642;2023-04-09T11:28:18;11.90;55.50
39899;DHT22;25571;47.876;10.642;2023-04-09T11:30:44;12.30;57.00
39899;DHT22;25571;47.876;10.642;2023-04-09T11:33:13;11.90;57.00
39899;DHT22;25571;47.876;10.642;2023-04-09T11:35:39;11.90;56.50
39899;DHT22;25571;47.876;10.642;2023-04-09T11:38:06;11.90;56.80
39899;DHT22;25571;47.876;10.642;2023-04-09T11:40:32;12.50;55.20
39899;DHT22;25571;47.876;10.642;2023-04-09T11:42:58;11.90;55.50
39899;DHT22;25571;47.876;10.642;2023-04-09T11:45:26;12.10;54.70
39899;DHT22;25571;47.876;10.642;2023-04-09T11:47:52;12.40;52.70
39899;DHT22;25571;47.876;10.642;2023-04-09T11:50:19;12.90;51.80
39899;DHT22;25571;47.876;10.642;2023-04-09T11:52:45;13.10;52.90
39899;DHT22;25571;47.876;10.642;2023-04-09T11:55:11;13.00;51.10
39899;DHT22;25571;47.876;10.642;2023-04-09T11:57:46;12.50;50.00
39899;DHT22;25571;47.876;10.642;2023-04-09T12:00:13;12.30;50.70
39899;DHT22;25571;47.876;10.642;2023-04-09T12:02:45;12.50;51.60
39899;DHT22;25571;47.876;10.642;2023-04-09T12:05:22;12.50;53.80
39899;DHT22;25571;47.876;10.642;2023-04-09T12:07:47;12.50;53.20
39899;DHT22;25571;47.876;10.642;2023-04-09T12:10:13;12.10;53.40
39899;DHT22;25571;47.876;10.642;2023-04-09T12:12:46;12.30;54.20
39899;DHT22;25571;47.876;10.642;2023-04-09T12:15:18;12.40;54.00
39899;DHT22;25571;47.876;10.642;2023-04-09T12:17:49;12.30;54.80
39899;DHT22;25571;47.876;10.642;2023-04-09T12:22:51;12.60;54.70
39899;DHT22;25571;47.876;10.642;2023-04-09T12:25:16;13.10;56.00
39899;DHT22;25571;47.876;10.642;2023-04-09T12:27:42;12.70;54.50
39899;DHT22;25571;47.876;10.642;2023-04-09T12:30:08;12.90;53.50
39899;DHT22;25571;47.876;10.642;2023-04-09T12:32:35;12.90;53.30
39899;DHT22;25571;47.876;10.642;2023-04-09T12:35:01;12.60;53.10
39899;DHT22;25571;47.876;10.642;2023-04-09T12:37:27;12.90;55.20
39899;DHT22;25571;47.876;10.642;2023-04-09T12:39:53;12.40;53.40
39899;DHT22;25571;47.876;10.642;2023-04-09T12:42:18;12.20;54.00
39899;DHT22;25571;47.876;10.642;2023-04-09T12:44:44;12.20;55.70
39899;DHT22;25571;47.876;10.642;2023-04-09T12:47:10;12.60;54.60
39899;DHT22;25571;47.876;10.642;2023-04-09T12:49:35;13.10;55.70
39899;DHT22;25571;47.876;10.642;2023-04-09T12:52:01;13.00;54.70
39899;DHT22;25571;47.876;10.642;2023-04-09T12:54:27;13.20;54.50
39899;DHT22;25571;47.876;10.642;2023-04-09T12:56:52;13.00;56.10
39899;DHT22;25571;47.876;10.642;2023-04-09T12:59:18;12.50;57.30
39899;DHT22;25571;47.876;10.642;2023-04-09T13:01:43;12.70;58.60
39899;DHT22;25571;47.876;10.642;2023-04-09T13:04:09;12.70;58.50
39899;DHT22;25571;47.876;10.642;2023-04-09T13:06:35;12.80;57.70
39899;DHT22;25571;47.876;10.642;2023-04-09T13:09:01;12.40;58.00
39899;DHT22;25571;47.876;10.642;2023-04-09T13:11:27;12.40;58.70
39899;DHT22;25571;47.876;10.642;2023-04-09T13:13:52;12.30;58.80
39899;DHT22;25571;47.876;10.642;2023-04-09T13:16:18;12.50;59.40
39899;DHT22;25571;47.876;10.642;2023-04-09T13:18:43;12.20;59.70
39899;DHT22;25571;47.876;10.642;2023-04-09T13:21:09;12.10;59.00
39899;DHT22;25571;47.876;10.642;2023-04-09T13:23:35;12.00;58.90
39899;DHT22;25571;47.876;10.642;2023-04-09T13:26:01;12.30;58.80
39899;DHT22;25571;47.876;10.642;2023-04-09T13:28:26;12.60;59.40
39899;DHT22;25571;47.876;10.642;2023-04-09T13:30:52;12.70;58.20
39899;DHT22;25571;47.876;10.642;2023-04-09T13:33:17;12.60;57.70
39899;DHT22;25571;47.876;10.642;2023-04-09T13:35:43;12.50;57.80
39899;DHT22;25571;47.876;10.642;2023-04-09T13:38:08;12.30;57.90
39899;DHT22;25571;47.876;10.642;2023-04-09T13:40:34;12.20;58.80
39899;DHT22;25571;47.876;10.642;2023-04-09T13:43:00;12.20;58.70
39899;DHT22;25571;47.876;10.642;2023-04-09T13:45:25;12.30;59.10
39899;DHT22;25571;47.876;10.642;2023-04-09T13:47:51;12.20;59.20
39899;DHT22;25571;47.876;10.642;2023-04-09T13:50:17;12.00;59.10
39899;DHT22;25571;47.876;10.642;2023-04-09T13:52:42;12.10;58.70
39899;DHT22;25571;47.876;10.642;2023-04-09T13:55:08;12.40;58.90
39899;DHT22;25571;47.876;10.642;2023-04-09T13:57:34;12.30;57.20
39899;DHT22;25571;47.876;10.642;2023-04-09T14:00:00;12.60;57.30
39899;DHT22;25571;47.876;10.642;2023-04-09T14:02:28;12.80;57.70
39899;DHT22;25571;47.876;10.642;2023-04-09T14:04:54;12.50;58.60
39899;DHT22;25571;47.876;10.642;2023-04-09T14:07:21;12.20;58.10
39899;DHT22;25571;47.876;10.642;2023-04-09T14:09:48;12.70;58.10
39899;DHT22;25571;47.876;10.642;2023-04-09T14:12:15;12.30;56.10
39899;DHT22;25571;47.876;10.642;2023-04-09T14:14:40;12.10;56.30
39899;DHT22;25571;47.876;10.642;2023-04-09T14:17:06;11.90;57.40
39899;DHT22;25571;47.876;10.642;2023-04-09T14:19:31;11.80;57.30
39899;DHT22;25571;47.876;10.642;2023-04-09T14:21:57;11.80;58.60
39899;DHT22;25571;47.876;10.642;2023-04-09T14:24:23;11.90;59.80
39899;DHT22;25571;47.876;10.642;2023-04-09T14:26:49;11.70;58.80
39899;DHT22;25571;47.876;10.642;2023-04-09T14:29:17;11.70;61.50
39899;DHT22;25571;47.876;10.642;2023-04-09T14:31:44;11.50;60.30
39899;DHT22;25571;47.876;10.642;2023-04-09T14:34:11;11.40;60.80
39899;DHT22;25571;47.876;10.642;2023-04-09T14:36:37;11.10;61.40
39899;DHT22;25571;47.876;10.642;2023-04-09T14:39:02;11.10;63.60
39899;DHT22;25571;47.876;10.642;2023-04-09T14:41:28;11.00;64.00
39899;DHT22;25571;47.876;10.642;2023-04-09T14:43:53;11.00;62.20
39899;DHT22;25571;47.876;10.642;2023-04-09T14:46:19;11.00;64.20
39899;DHT22;25571;47.876;10.642;2023-04-09T14:48:46;10.90;59.20
39899;DHT22;25571;47.876;10.642;2023-04-09T14:51:12;10.80;60.50
39899;DHT22;25571;47.876;10.642;2023-04-09T14:53:37;10.80;61.50
39899;DHT22;25571;47.876;10.642;2023-04-09T14:56:03;11.10;63.10
39899;DHT22;25571;47.876;10.642;2023-04-09T14:58:29;11.00;61.60
39899;DHT22;25571;47.876;10.642;2023-04-09T15:00:55;11.10;60.60
39899;DHT22;25571;47.876;10.642;2023-04-09T15:03:21;11.30;60.90
39899;DHT22;25571;47.876;10.642;2023-04-09T15:05:47;11.40;59.40
39899;DHT22;25571;47.876;10.642;2023-04-09T15:08:12;11.60;60.80
39899;DHT22;25571;47.876;10.642;2023-04-09T15:10:38;11.40;61.80
39899;DHT22;25571;47.876;10.642;2023-04-09T15:13:03;11.40;61.60
39899;DHT22;25571;47.876;10.642;2023-04-09T15:15:29;11.50;61.40
39899;DHT22;25571;47.876;10.642;2023-04-09T15:17:55;11.30;61.70
39899;DHT22;25571;47.876;10.642;2023-04-09T15:20:21;11.10;62.20
39899;DHT22;25571;47.876;10.642;2023-04-09T15:22:46;11.00;63.20
39899;DHT22;25571;47.876;10.642;2023-04-09T15:25:12;10.80;63.50
39899;DHT22;25571;47.876;10.642;2023-04-09T15:27:38;10.90;64.00
39899;DHT22;25571;47.876;10.642;2023-04-09T15:30:04;10.80;63.60
39899;DHT22;25571;47.876;10.642;2023-04-09T15:32:30;10.70;64.00
39899;DHT22;25571;47.876;10.642;2023-04-09T15:34:57;10.80;63.80
39899;DHT22;25571;47.876;10.642;2023-04-09T15:37:23;10.50;63.20